createdAt,value
2022-08-30T00:00:12.470Z,77.90
2022-08-30T00:02:03.670Z,77.90
2022-08-30T00:03:55.500Z,77.90
2022-08-30T00:05:46.824Z,78.00
2022-08-30T00:07:37.650Z,78.30
2022-08-30T00:09:28.083Z,78.60
2022-08-30T00:11:21.013Z,78.70
2022-08-30T00:13:12.976Z,78.70
2022-08-30T00:15:04.516Z,78.60
2022-08-30T00:16:56.723Z,78.70
2022-08-30T00:18:47.529Z,78.60
2022-08-30T00:20:39.014Z,78.60
2022-08-30T00:22:29.786Z,78.90
2022-08-30T00:24:20.362Z,78.80
2022-08-30T00:26:11.326Z,78.70
2022-08-30T00:28:02.138Z,78.50
2022-08-30T00:29:52.439Z,78.60
2022-08-30T00:31:43.166Z,78.90
2022-08-30T00:33:35.105Z,79.10
2022-08-30T00:35:25.880Z,79.00
2022-08-30T00:37:16.826Z,79.00
2022-08-30T00:39:07.202Z,79.00
2022-08-30T00:40:57.613Z,79.00
2022-08-30T00:42:51.005Z,79.10
2022-08-30T00:44:43.438Z,79.10
2022-08-30T00:46:34.119Z,79.10
2022-08-30T00:48:34.134Z,78.90
2022-08-30T00:50:35.052Z,79.10
2022-08-30T00:52:26.961Z,79.10
2022-08-30T00:54:18.265Z,79.10
2022-08-30T00:56:09.122Z,79.20
2022-08-30T00:58:04.333Z,79.40
2022-08-30T01:00:03.591Z,79.40
2022-08-30T01:01:55.219Z,79.50
2022-08-30T01:03:49.271Z,79.60
2022-08-30T01:05:42.176Z,79.40
2022-08-30T01:07:38.549Z,79.50
2022-08-30T01:09:29.574Z,79.50
2022-08-30T01:11:24.431Z,79.70
2022-08-30T01:13:25.126Z,79.80
2022-08-30T01:15:16.471Z,79.70
2022-08-30T01:17:08.138Z,79.60
2022-08-30T01:18:59.777Z,79.70
2022-08-30T01:20:59.369Z,79.80
2022-08-30T01:23:06.794Z,79.60
2022-08-30T01:25:02.174Z,79.70
2022-08-30T01:26:52.705Z,79.70
2022-08-30T01:28:49.102Z,79.60
2022-08-30T01:30:40.372Z,79.40
2022-08-30T01:32:31.640Z,79.20
2022-08-30T01:34:22.738Z,79.20
2022-08-30T01:36:14.957Z,79.20
2022-08-30T01:38:09.980Z,79.10
2022-08-30T01:40:01.135Z,79.20
2022-08-30T01:41:59.317Z,79.10
2022-08-30T01:43:54.655Z,79.00
2022-08-30T01:45:45.881Z,78.90
2022-08-30T01:47:43.383Z,79.10
2022-08-30T01:49:37.103Z,78.80
2022-08-30T01:51:31.669Z,78.90
2022-08-30T01:53:26.270Z,78.70
2022-08-30T01:55:16.845Z,78.60
2022-08-30T01:57:08.955Z,78.60
2022-08-30T01:59:14.086Z,78.80
2022-08-30T02:01:09.734Z,78.60
2022-08-30T02:03:05.026Z,78.80
2022-08-30T02:04:59.795Z,78.70
2022-08-30T02:06:51.915Z,78.60
2022-08-30T02:08:44.705Z,78.60
2022-08-30T02:10:35.447Z,78.70
2022-08-30T02:12:28.645Z,78.60
2022-08-30T02:14:21.203Z,78.80
2022-08-30T02:16:18.150Z,78.70
2022-08-30T02:18:08.918Z,78.70
2022-08-30T02:20:09.079Z,78.80
2022-08-30T02:22:01.995Z,78.60
2022-08-30T02:23:57.228Z,78.60
2022-08-30T02:25:48.160Z,78.50
2022-08-30T02:27:39.149Z,78.80
2022-08-30T02:29:33.386Z,79.10
2022-08-30T02:31:27.399Z,79.20
2022-08-30T02:33:18.937Z,78.90
2022-08-30T02:35:16.126Z,78.80
2022-08-30T02:37:07.131Z,79.10
2022-08-30T02:39:02.670Z,79.20
2022-08-30T02:40:53.706Z,79.00
2022-08-30T02:42:44.696Z,79.00
2022-08-30T02:44:35.283Z,79.00
2022-08-30T02:46:26.982Z,79.20
2022-08-30T02:48:24.269Z,79.10
2022-08-30T02:50:19.796Z,79.10
2022-08-30T02:52:10.915Z,79.00
2022-08-30T02:54:07.610Z,79.00
2022-08-30T02:56:07.111Z,79.00
2022-08-30T02:57:59.910Z,79.20
2022-08-30T02:59:50.929Z,79.10
2022-08-30T03:01:43.394Z,79.30
2022-08-30T03:03:36.217Z,79.20
2022-08-30T03:05:29.652Z,79.10
2022-08-30T03:07:21.326Z,79.30
2022-08-30T03:09:24.918Z,79.30
2022-08-30T03:11:15.652Z,79.20
2022-08-30T03:13:09.636Z,79.50
2022-08-30T03:15:01.562Z,79.50
2022-08-30T03:16:56.947Z,79.50
2022-08-30T03:18:50.470Z,79.30
2022-08-30T03:20:41.787Z,79.20
2022-08-30T03:22:38.313Z,79.20
2022-08-30T03:24:31.912Z,79.20
2022-08-30T03:26:29.186Z,79.30
2022-08-30T03:28:21.491Z,79.30
2022-08-30T03:30:18.890Z,79.20
2022-08-30T03:32:13.645Z,79.10
2022-08-30T03:34:04.736Z,79.10
2022-08-30T03:35:55.285Z,79.30
2022-08-30T03:37:46.255Z,79.20
2022-08-30T03:39:38.233Z,79.20
2022-08-30T03:41:28.747Z,79.20
2022-08-30T03:43:19.327Z,79.40
2022-08-30T03:45:10.660Z,79.40
2022-08-30T03:47:02.266Z,79.50
2022-08-30T03:48:53.775Z,79.60
2022-08-30T03:50:44.753Z,80.00
2022-08-30T03:52:38.596Z,79.90
2022-08-30T03:54:29.120Z,80.10
2022-08-30T03:56:21.010Z,80.00
2022-08-30T03:58:11.679Z,79.80
2022-08-30T04:00:03.514Z,80.00
2022-08-30T04:02:02.785Z,80.10
2022-08-30T04:03:56.700Z,80.20
2022-08-30T04:05:47.510Z,80.20
2022-08-30T04:07:38.741Z,80.20
2022-08-30T04:09:29.542Z,80.40
2022-08-30T04:11:27.109Z,80.60
2022-08-30T04:13:20.366Z,80.50
2022-08-30T04:15:12.102Z,80.70
2022-08-30T04:17:02.803Z,80.80
2022-08-30T04:18:54.923Z,80.70
2022-08-30T04:20:48.047Z,80.70
2022-08-30T04:22:39.145Z,80.80
2022-08-30T04:24:29.733Z,80.90
2022-08-30T04:26:21.420Z,80.80
2022-08-30T04:28:31.672Z,81.00
2022-08-30T04:30:43.470Z,80.90
2022-08-30T04:32:44.561Z,80.90
2022-08-30T04:34:36.181Z,80.80
2022-08-30T04:36:35.275Z,80.90
2022-08-30T04:38:30.791Z,81.10
2022-08-30T04:40:22.028Z,81.10
2022-08-30T04:42:33.190Z,81.30
2022-08-30T04:45:04.931Z,81.20
2022-08-30T04:47:06.979Z,81.40
2022-08-30T04:49:07.956Z,81.30
2022-08-30T04:50:59.077Z,81.30
2022-08-30T04:52:49.395Z,81.40
2022-08-30T04:54:39.775Z,81.50
2022-08-30T04:56:30.297Z,81.60
2022-08-30T04:58:20.809Z,81.70
2022-08-30T05:00:13.334Z,81.90
2022-08-30T05:02:03.946Z,81.90
2022-08-30T05:03:57.329Z,81.70
2022-08-30T05:05:48.695Z,81.90
2022-08-30T05:07:39.039Z,81.60
2022-08-30T05:09:29.997Z,81.60
2022-08-30T05:11:21.359Z,81.60
2022-08-30T05:13:12.871Z,81.70
2022-08-30T05:15:04.307Z,81.70
2022-08-30T05:16:55.179Z,81.70
2022-08-30T05:18:46.398Z,81.70
2022-08-30T05:20:38.950Z,81.90
2022-08-30T05:22:29.397Z,81.70
2022-08-30T05:24:20.461Z,81.90
2022-08-30T05:26:13.638Z,81.90
2022-08-30T05:28:04.122Z,82.10
2022-08-30T05:29:55.816Z,81.90
2022-08-30T05:31:46.622Z,82.10
2022-08-30T05:33:38.910Z,82.10
2022-08-30T05:35:29.518Z,82.10
2022-08-30T05:37:21.554Z,81.90
2022-08-30T05:39:12.003Z,81.70
2022-08-30T05:41:08.269Z,82.10
2022-08-30T05:43:01.582Z,81.90
2022-08-30T05:44:52.844Z,81.90
2022-08-30T05:46:43.550Z,81.90
2022-08-30T05:48:34.579Z,82.30
2022-08-30T05:50:25.187Z,82.10
2022-08-30T05:52:16.430Z,82.10
2022-08-30T05:54:08.698Z,82.30
2022-08-30T05:56:00.574Z,82.30
2022-08-30T05:57:51.024Z,82.10
2022-08-30T05:59:41.975Z,82.10
2022-08-30T06:01:34.422Z,82.40
2022-08-30T06:03:25.550Z,82.30
2022-08-30T06:05:17.913Z,82.10
2022-08-30T06:07:10.520Z,82.00
2022-08-30T06:09:05.832Z,82.00
2022-08-30T06:10:58.034Z,81.90
2022-08-30T06:12:48.535Z,81.60
2022-08-30T06:14:39.122Z,81.60
2022-08-30T06:16:29.889Z,81.50
2022-08-30T06:18:28.352Z,81.10
2022-08-30T06:20:19.480Z,80.90
2022-08-30T06:22:09.922Z,80.90
2022-08-30T06:24:00.603Z,80.70
2022-08-30T06:25:51.003Z,80.60
2022-08-30T06:27:43.167Z,80.70
2022-08-30T06:29:33.492Z,80.70
2022-08-30T06:31:26.192Z,80.60
2022-08-30T06:33:17.001Z,80.60
2022-08-30T06:35:08.647Z,80.80
2022-08-30T06:36:59.011Z,80.40
2022-08-30T06:38:50.151Z,80.30
2022-08-30T06:40:40.609Z,80.30
2022-08-30T06:42:32.537Z,80.20
2022-08-30T06:44:24.330Z,80.30
2022-08-30T06:46:16.795Z,80.00
2022-08-30T06:48:07.320Z,79.70
2022-08-30T06:49:58.717Z,79.50
2022-08-30T06:51:49.083Z,79.40
2022-08-30T06:53:39.413Z,79.30
2022-08-30T06:55:31.856Z,79.10
2022-08-30T06:57:22.822Z,79.00
2022-08-30T06:59:13.516Z,78.60
2022-08-30T07:01:05.988Z,78.20
2022-08-30T07:02:56.547Z,78.10
2022-08-30T07:04:47.209Z,77.70
2022-08-30T07:06:37.598Z,77.30
2022-08-30T07:08:27.941Z,77.70
2022-08-30T07:10:18.723Z,77.20
2022-08-30T07:12:10.026Z,76.90
2022-08-30T07:14:00.643Z,76.60
2022-08-30T07:15:52.135Z,76.20
2022-08-30T07:17:43.982Z,75.90
2022-08-30T07:19:34.615Z,75.40
2022-08-30T07:21:28.018Z,75.30
2022-08-30T07:23:18.444Z,75.10
2022-08-30T07:25:09.085Z,74.80
2022-08-30T07:26:59.614Z,74.30
2022-08-30T07:28:50.567Z,74.00
2022-08-30T07:30:47.023Z,74.20
2022-08-30T07:32:37.491Z,74.20
2022-08-30T07:34:29.250Z,73.60
2022-08-30T07:36:21.059Z,73.20
2022-08-30T07:38:13.105Z,72.70
2022-08-30T07:40:04.495Z,72.20
2022-08-30T07:41:55.482Z,72.00
2022-08-30T07:43:46.813Z,72.00
2022-08-30T07:45:37.732Z,71.80
2022-08-30T07:47:28.165Z,71.00
2022-08-30T07:49:18.540Z,70.20
2022-08-30T07:51:12.585Z,70.00
2022-08-30T07:53:06.669Z,68.80
2022-08-30T07:55:00.547Z,68.50
2022-08-30T07:56:51.450Z,68.00
2022-08-30T07:58:42.202Z,67.70
2022-08-30T08:00:32.797Z,67.80
2022-08-30T08:02:23.678Z,68.10
2022-08-30T08:04:14.147Z,67.60
2022-08-30T08:06:06.246Z,67.60
2022-08-30T08:07:58.080Z,67.50
2022-08-30T08:09:48.570Z,67.30
2022-08-30T08:11:39.335Z,67.60
2022-08-30T08:13:32.913Z,67.00
2022-08-30T08:15:36.413Z,66.50
2022-08-30T08:17:26.915Z,66.30
2022-08-30T08:19:17.581Z,66.20
2022-08-30T08:21:08.351Z,66.50
2022-08-30T08:23:00.651Z,66.60
2022-08-30T08:24:51.019Z,66.60
2022-08-30T08:26:45.411Z,66.40
2022-08-30T08:28:35.885Z,66.10
2022-08-30T08:30:26.462Z,65.20
2022-08-30T08:32:17.353Z,65.40
2022-08-30T08:34:08.149Z,65.00
2022-08-30T08:35:58.752Z,65.30
2022-08-30T08:37:49.122Z,65.40
2022-08-30T08:39:40.776Z,64.80
2022-08-30T08:41:40.295Z,64.60
2022-08-30T08:43:34.399Z,65.00
2022-08-30T08:45:37.709Z,65.10
2022-08-30T08:47:37.546Z,63.80
2022-08-30T08:49:28.809Z,64.20
2022-08-30T08:51:21.679Z,64.40
2022-08-30T08:53:36.067Z,63.40
2022-08-30T08:55:29.279Z,63.30
2022-08-30T08:57:24.471Z,63.40
2022-08-30T08:59:16.462Z,63.10
2022-08-30T09:01:08.781Z,62.60
2022-08-30T09:03:02.206Z,62.40
2022-08-30T09:04:56.099Z,62.50
2022-08-30T09:06:52.754Z,62.70
2022-08-30T09:08:43.372Z,62.30
2022-08-30T09:10:49.809Z,61.90
2022-08-30T09:12:40.954Z,62.20
2022-08-30T09:14:36.256Z,61.60
2022-08-30T09:16:47.802Z,61.20
2022-08-30T09:18:45.571Z,60.60
2022-08-30T09:20:38.852Z,60.50
2022-08-30T09:22:33.420Z,60.20
2022-08-30T09:24:26.259Z,60.50
2022-08-30T09:26:32.437Z,60.40
2022-08-30T09:28:25.504Z,59.40
2022-08-30T09:30:18.536Z,59.10
2022-08-30T09:32:25.635Z,58.50
2022-08-30T09:34:18.507Z,59.30
2022-08-30T09:36:19.206Z,59.40
2022-08-30T09:38:11.554Z,59.10
2022-08-30T09:40:10.849Z,59.00
2022-08-30T09:42:14.292Z,59.60
2022-08-30T09:44:08.651Z,59.20
2022-08-30T09:46:08.863Z,58.90
2022-08-30T09:47:59.818Z,59.00
2022-08-30T09:49:50.903Z,59.50
2022-08-30T09:51:47.048Z,59.40
2022-08-30T09:53:50.961Z,58.90
2022-08-30T09:55:58.714Z,59.80
2022-08-30T09:57:57.188Z,59.90
2022-08-30T09:59:50.606Z,59.60
2022-08-30T10:01:45.809Z,59.00
2022-08-30T10:03:41.750Z,56.70
2022-08-30T10:05:38.302Z,57.10
2022-08-30T10:07:38.413Z,57.70
2022-08-30T10:09:35.853Z,56.90
2022-08-30T10:11:32.528Z,56.80
2022-08-30T10:13:48.735Z,56.60
2022-08-30T10:15:43.067Z,56.10
2022-08-30T10:17:42.119Z,56.20
2022-08-30T10:19:46.049Z,56.60
2022-08-30T10:21:40.816Z,56.40
2022-08-30T10:23:34.818Z,55.80
2022-08-30T10:25:28.131Z,56.90
2022-08-30T10:27:22.626Z,56.70
2022-08-30T10:29:17.005Z,56.30
2022-08-30T10:31:11.238Z,56.70
2022-08-30T10:33:06.690Z,56.10
2022-08-30T10:35:02.188Z,56.00
2022-08-30T10:36:58.345Z,56.30
2022-08-30T10:38:50.145Z,55.70
2022-08-30T10:40:44.625Z,55.00
2022-08-30T10:42:40.016Z,55.10
2022-08-30T10:44:34.613Z,55.00
2022-08-30T10:46:30.981Z,54.70
2022-08-30T10:48:24.277Z,54.80
2022-08-30T10:50:17.563Z,54.40
2022-08-30T10:52:22.573Z,52.90
2022-08-30T10:54:18.720Z,52.50
2022-08-30T10:56:13.188Z,52.80
2022-08-30T10:58:06.108Z,52.50
2022-08-30T11:00:01.279Z,52.30
2022-08-30T11:02:15.346Z,52.70
2022-08-30T11:04:24.604Z,51.20
2022-08-30T11:06:20.053Z,52.00
2022-08-30T11:08:20.457Z,50.90
2022-08-30T11:10:23.086Z,51.10
2022-08-30T11:12:25.599Z,50.70
2022-08-30T11:14:18.935Z,50.40
2022-08-30T11:16:13.208Z,50.20
2022-08-30T11:18:11.261Z,50.20
2022-08-30T11:20:04.091Z,49.50
2022-08-30T11:21:54.258Z,49.80
2022-08-30T11:23:58.232Z,49.30
2022-08-30T11:25:57.747Z,49.50
2022-08-30T11:27:51.569Z,49.50
2022-08-30T11:29:44.045Z,49.30
2022-08-30T11:31:41.281Z,48.10
2022-08-30T11:33:42.929Z,48.20
2022-08-30T11:35:47.296Z,46.30
2022-08-30T11:37:41.707Z,46.00
2022-08-30T11:39:51.493Z,46.50
2022-08-30T11:43:56.366Z,45.30
2022-08-30T11:45:48.785Z,45.30
2022-08-30T11:47:44.767Z,45.50
2022-08-30T11:49:50.301Z,46.80
2022-08-30T11:52:26.439Z,45.70
2022-08-30T11:54:28.484Z,45.70
2022-08-30T11:56:25.192Z,45.90
2022-08-30T11:58:26.236Z,46.20
2022-08-30T12:00:29.592Z,47.00
2022-08-30T12:02:50.071Z,47.30
2022-08-30T12:04:45.445Z,46.80
2022-08-30T12:06:54.262Z,47.10
2022-08-30T12:08:47.876Z,47.50
2022-08-30T12:10:41.272Z,47.70
2022-08-30T12:12:50.846Z,48.50
2022-08-30T12:14:46.217Z,47.10
2022-08-30T12:16:39.191Z,47.50
2022-08-30T12:18:38.549Z,47.50
2022-08-30T12:20:39.218Z,47.20
2022-08-30T12:22:29.909Z,46.40
2022-08-30T12:24:25.442Z,46.40
2022-08-30T12:26:20.318Z,46.50
2022-08-30T12:28:14.167Z,46.40
2022-08-30T12:30:07.621Z,46.70
2022-08-30T12:32:03.383Z,47.50
2022-08-30T12:34:00.632Z,47.40
2022-08-30T12:35:51.570Z,46.10
2022-08-30T12:37:43.858Z,46.70
2022-08-30T12:39:37.381Z,46.60
2022-08-30T12:41:27.934Z,45.50
2022-08-30T12:43:26.850Z,44.90
2022-08-30T12:45:19.241Z,45.20
2022-08-30T12:47:11.696Z,45.00
2022-08-30T12:49:06.325Z,44.60
2022-08-30T12:50:58.422Z,45.10
2022-08-30T12:52:57.677Z,45.00
2022-08-30T12:54:48.502Z,45.10
2022-08-30T12:56:49.823Z,44.80
2022-08-30T12:58:43.929Z,44.60
2022-08-30T13:00:36.452Z,44.60
2022-08-30T13:02:28.585Z,44.10
2022-08-30T13:04:22.826Z,44.20
2022-08-30T13:06:13.271Z,43.70
2022-08-30T13:08:26.069Z,44.20
2022-08-30T13:10:19.589Z,44.70
2022-08-30T13:12:22.933Z,44.50
2022-08-30T13:14:30.018Z,45.30
2022-08-30T13:16:23.240Z,43.20
2022-08-30T13:18:26.796Z,43.70
2022-08-30T13:20:25.938Z,45.00
2022-08-30T13:22:27.885Z,44.60
2022-08-30T13:24:21.373Z,45.20
2022-08-30T13:26:20.436Z,45.20
2022-08-30T13:28:13.680Z,45.20
2022-08-30T13:30:07.980Z,44.50
2022-08-30T13:32:04.328Z,44.90
2022-08-30T13:33:55.206Z,44.80
2022-08-30T13:35:47.184Z,44.90
2022-08-30T13:37:49.895Z,45.60
2022-08-30T13:39:41.746Z,44.90
2022-08-30T13:41:34.724Z,45.10
2022-08-30T13:43:25.626Z,44.90
2022-08-30T13:47:35.869Z,44.90
2022-08-30T13:49:45.632Z,45.50
2022-08-30T13:51:37.957Z,45.80
2022-08-30T13:55:40.615Z,45.60
2022-08-30T13:59:42.584Z,45.50
2022-08-30T14:06:29.308Z,46.50
2022-08-30T14:10:31.953Z,46.90
2022-08-30T14:12:52.646Z,48.20
2022-08-30T14:14:42.896Z,47.50
2022-08-30T14:16:35.314Z,47.60
2022-08-30T14:18:26.015Z,47.20
2022-08-30T14:20:17.810Z,47.00
2022-08-30T14:22:08.523Z,47.20
2022-08-30T14:24:01.153Z,47.10
2022-08-30T14:25:52.955Z,47.50
2022-08-30T14:27:43.790Z,47.40
2022-08-30T14:29:34.136Z,47.90
2022-08-30T14:31:25.843Z,48.20
2022-08-30T14:33:16.899Z,48.60
2022-08-30T14:35:08.049Z,47.80
2022-08-30T14:36:58.803Z,47.50
2022-08-30T14:38:49.456Z,47.20
2022-08-30T14:40:41.781Z,47.90
2022-08-30T14:42:32.467Z,47.60
2022-08-30T14:44:24.306Z,47.80
2022-08-30T14:46:15.716Z,47.90
2022-08-30T14:48:15.029Z,48.50
2022-08-30T14:50:06.980Z,48.50
2022-08-30T14:51:58.561Z,48.90
2022-08-30T14:53:51.940Z,48.90
2022-08-30T14:55:44.091Z,48.90
2022-08-30T14:57:34.741Z,48.80
2022-08-30T14:59:26.154Z,48.50
2022-08-30T15:01:17.914Z,48.50
2022-08-30T15:03:08.799Z,48.60
2022-08-30T15:04:59.432Z,48.90
2022-08-30T15:06:51.182Z,48.60
2022-08-30T15:08:41.735Z,48.30
2022-08-30T15:10:40.716Z,48.20
2022-08-30T15:12:35.094Z,48.60
2022-08-30T15:14:26.875Z,48.40
2022-08-30T15:16:21.225Z,48.30
2022-08-30T15:18:12.244Z,48.50
2022-08-30T15:20:08.582Z,47.60
2022-08-30T15:22:02.636Z,47.90
2022-08-30T15:23:54.001Z,47.70
2022-08-30T15:25:44.928Z,47.50
2022-08-30T15:27:36.778Z,47.50
2022-08-30T15:29:27.646Z,48.00
2022-08-30T15:31:22.991Z,47.30
2022-08-30T15:33:13.961Z,47.50
2022-08-30T15:35:07.924Z,46.80
2022-08-30T15:36:58.755Z,46.80
2022-08-30T15:38:49.290Z,46.60
2022-08-30T15:40:39.796Z,46.30
2022-08-30T15:42:30.659Z,46.20
2022-08-30T15:44:22.486Z,45.70
2022-08-30T15:46:18.320Z,45.50
2022-08-30T15:48:09.127Z,45.30
2022-08-30T15:50:01.685Z,44.80
2022-08-30T15:51:54.132Z,45.70
2022-08-30T15:53:45.815Z,44.90
2022-08-30T15:55:37.290Z,44.80
2022-08-30T15:57:28.368Z,43.90
2022-08-30T15:59:18.902Z,43.90
2022-08-30T16:01:30.223Z,44.10
2022-08-30T16:03:22.121Z,44.20
2022-08-30T16:05:12.517Z,43.80
2022-08-30T16:07:03.117Z,44.10
2022-08-30T16:08:55.238Z,43.90
2022-08-30T16:10:45.881Z,44.10
2022-08-30T16:12:38.619Z,44.30
2022-08-30T16:14:29.529Z,44.20
2022-08-30T16:16:22.237Z,44.70
2022-08-30T16:18:13.695Z,44.70
2022-08-30T16:20:06.559Z,44.80
2022-08-30T16:21:57.458Z,44.70
2022-08-30T16:23:48.424Z,44.70
2022-08-30T16:25:41.171Z,44.80
2022-08-30T16:27:32.065Z,44.90
2022-08-30T16:29:22.594Z,44.50
2022-08-30T16:31:15.497Z,44.90
2022-08-30T16:33:07.309Z,45.20
2022-08-30T16:34:58.091Z,45.30
2022-08-30T16:36:48.724Z,45.40
2022-08-30T16:38:39.748Z,45.30
2022-08-30T16:40:30.651Z,45.50
2022-08-30T16:42:21.647Z,45.60
2022-08-30T16:44:12.379Z,45.80
2022-08-30T16:46:05.723Z,45.30
2022-08-30T16:47:57.218Z,45.80
2022-08-30T16:49:48.737Z,45.70
2022-08-30T16:51:41.114Z,46.20
2022-08-30T16:53:31.648Z,45.60
2022-08-30T16:55:22.623Z,46.00
2022-08-30T16:57:13.483Z,45.90
2022-08-30T16:59:10.348Z,45.70
2022-08-30T17:01:02.218Z,46.00
2022-08-30T17:02:54.224Z,45.90
2022-08-30T17:04:44.775Z,46.20
2022-08-30T17:06:37.014Z,46.10
2022-08-30T17:08:27.493Z,46.40
2022-08-30T17:10:19.226Z,46.40
2022-08-30T17:12:17.183Z,46.80
2022-08-30T17:14:08.247Z,47.00
2022-08-30T17:15:59.274Z,46.90
2022-08-30T17:17:49.647Z,46.50
2022-08-30T17:19:41.291Z,46.10
2022-08-30T17:21:33.640Z,46.10
2022-08-30T17:23:25.770Z,45.70
2022-08-30T17:25:16.606Z,45.40
2022-08-30T17:27:09.987Z,45.70
2022-08-30T17:29:00.812Z,45.80
2022-08-30T17:30:51.780Z,45.70
2022-08-30T17:32:42.569Z,45.90
2022-08-30T17:34:33.596Z,45.80
2022-08-30T17:36:24.352Z,45.60
2022-08-30T17:38:15.695Z,45.50
2022-08-30T17:40:14.391Z,46.00
2022-08-30T17:42:05.463Z,45.90
2022-08-30T17:43:56.094Z,45.60
2022-08-30T17:45:46.450Z,46.20
2022-08-30T17:47:37.007Z,46.50
2022-08-30T17:49:29.364Z,46.40
2022-08-30T17:51:19.891Z,46.30
2022-08-30T17:53:10.518Z,46.50
2022-08-30T17:55:01.294Z,47.00
2022-08-30T17:56:53.779Z,47.10
2022-08-30T17:58:44.382Z,47.20
2022-08-30T18:00:34.708Z,47.40
2022-08-30T18:02:29.874Z,47.40
2022-08-30T18:04:21.024Z,47.50
2022-08-30T18:06:11.784Z,47.70
2022-08-30T18:08:02.585Z,48.00
2022-08-30T18:09:53.129Z,47.90
2022-08-30T18:11:44.835Z,48.00
2022-08-30T18:13:37.459Z,48.40
2022-08-30T18:15:27.640Z,48.70
2022-08-30T18:17:18.491Z,48.90
2022-08-30T18:19:09.678Z,49.10
2022-08-30T18:21:00.239Z,49.00
2022-08-30T18:22:51.476Z,49.20
2022-08-30T18:24:42.885Z,49.30
2022-08-30T18:26:33.636Z,49.60
2022-08-30T18:28:24.416Z,49.70
2022-08-30T18:30:16.642Z,49.80
2022-08-30T18:32:09.196Z,50.10
2022-08-30T18:33:59.921Z,50.20
2022-08-30T18:35:50.677Z,50.60
2022-08-30T18:37:41.990Z,50.80
2022-08-30T18:39:34.143Z,51.10
2022-08-30T18:41:43.425Z,51.50
2022-08-30T18:43:34.964Z,51.80
2022-08-30T18:45:26.740Z,51.80
2022-08-30T18:47:17.495Z,51.90
2022-08-30T18:49:16.880Z,52.30
2022-08-30T18:51:10.335Z,53.00
2022-08-30T18:53:00.793Z,53.20
2022-08-30T18:54:52.570Z,53.70
2022-08-30T18:56:43.856Z,54.30
2022-08-30T18:58:35.853Z,54.40
2022-08-30T19:00:28.281Z,55.00
2022-08-30T19:02:20.373Z,55.50
2022-08-30T19:04:11.182Z,56.20
2022-08-30T19:06:13.110Z,56.40
2022-08-30T19:08:04.570Z,56.80
2022-08-30T19:09:55.190Z,57.30
2022-08-30T19:11:52.337Z,57.80
2022-08-30T19:13:43.126Z,58.40
2022-08-30T19:15:35.602Z,59.40
2022-08-30T19:17:26.422Z,59.90
2022-08-30T19:19:17.265Z,60.40
2022-08-30T19:21:13.499Z,60.70
2022-08-30T19:23:09.168Z,61.20
2022-08-30T19:25:00.697Z,61.50
2022-08-30T19:26:51.143Z,61.80
2022-08-30T19:28:41.961Z,62.00
2022-08-30T19:30:34.315Z,62.00
2022-08-30T19:32:24.711Z,62.60
2022-08-30T19:34:16.539Z,62.50
2022-08-30T19:36:07.627Z,62.50
2022-08-30T19:37:58.309Z,62.70
2022-08-30T19:39:48.939Z,62.80
2022-08-30T19:41:39.757Z,63.10
2022-08-30T19:43:30.880Z,63.20
2022-08-30T19:45:22.956Z,63.30
2022-08-30T19:47:15.057Z,63.40
2022-08-30T19:49:06.208Z,63.30
2022-08-30T19:50:57.529Z,63.40
2022-08-30T19:52:54.149Z,63.70
2022-08-30T19:54:45.754Z,63.90
2022-08-30T19:56:36.329Z,64.40
2022-08-30T19:58:26.796Z,64.50
2022-08-30T20:00:17.531Z,64.50
2022-08-30T20:02:08.499Z,64.60
2022-08-30T20:04:00.572Z,64.90
2022-08-30T20:05:51.534Z,65.20
2022-08-30T20:07:42.262Z,65.20
2022-08-30T20:09:32.922Z,65.20
2022-08-30T20:11:23.680Z,65.10
2022-08-30T20:13:14.673Z,65.30
2022-08-30T20:15:06.918Z,65.30
2022-08-30T20:16:57.457Z,65.40
2022-08-30T20:18:47.844Z,65.50
2022-08-30T20:20:39.969Z,65.70
2022-08-30T20:22:30.429Z,65.60
2022-08-30T20:24:20.854Z,65.60
2022-08-30T20:26:12.507Z,65.60
2022-08-30T20:28:03.420Z,65.90
2022-08-30T20:29:54.252Z,66.00
2022-08-30T20:31:45.037Z,66.40
2022-08-30T20:33:36.530Z,66.50
2022-08-30T20:35:27.339Z,66.80
2022-08-30T20:37:19.956Z,67.00
2022-08-30T20:39:10.261Z,67.10
2022-08-30T20:41:09.825Z,67.30
2022-08-30T20:43:00.196Z,67.50
2022-08-30T20:44:50.520Z,67.60
2022-08-30T20:46:43.187Z,67.70
2022-08-30T20:48:33.327Z,67.90
2022-08-30T20:50:23.645Z,68.20
2022-08-30T20:52:14.771Z,68.40
2022-08-30T20:54:07.019Z,68.20
2022-08-30T20:55:57.669Z,68.60
2022-08-30T20:57:48.408Z,68.50
2022-08-30T20:59:39.089Z,68.60
2022-08-30T21:01:30.302Z,68.70
2022-08-30T21:03:26.037Z,68.70
2022-08-30T21:05:18.849Z,68.90
2022-08-30T21:07:09.167Z,69.50
2022-08-30T21:08:59.691Z,69.70
2022-08-30T21:10:51.617Z,70.00
2022-08-30T21:12:42.397Z,70.20
2022-08-30T21:14:33.134Z,70.50
2022-08-30T21:16:23.613Z,70.60
2022-08-30T21:18:14.356Z,70.60
2022-08-30T21:20:06.414Z,70.50
2022-08-30T21:21:56.738Z,70.60
2022-08-30T21:23:47.294Z,70.80
2022-08-30T21:25:38.752Z,70.90
2022-08-30T21:27:30.560Z,71.20
2022-08-30T21:29:21.167Z,71.30
2022-08-30T21:31:13.673Z,71.30
2022-08-30T21:33:04.375Z,71.30
2022-08-30T21:34:54.925Z,71.30
2022-08-30T21:36:45.873Z,71.20
2022-08-30T21:38:36.495Z,71.30
2022-08-30T21:40:27.222Z,71.70
2022-08-30T21:42:17.882Z,71.70
2022-08-30T21:44:11.327Z,71.70
2022-08-30T21:46:05.552Z,71.60
2022-08-30T21:47:56.062Z,71.60
2022-08-30T21:49:46.491Z,71.70
2022-08-30T21:51:38.350Z,71.80
2022-08-30T21:53:28.895Z,72.10
2022-08-30T21:55:19.278Z,72.20
2022-08-30T21:57:09.833Z,72.30
2022-08-30T21:59:00.605Z,72.40
2022-08-30T22:00:52.826Z,72.30
2022-08-30T22:02:43.424Z,72.30
2022-08-30T22:04:33.703Z,71.90
2022-08-30T22:06:29.273Z,71.80
2022-08-30T22:08:21.334Z,71.70
2022-08-30T22:10:12.530Z,71.80
2022-08-30T22:12:04.016Z,71.50
2022-08-30T22:13:57.474Z,71.80
2022-08-30T22:15:49.225Z,71.60
2022-08-30T22:17:41.826Z,71.60
2022-08-30T22:19:33.732Z,71.50
2022-08-30T22:21:27.032Z,71.20
2022-08-30T22:23:19.043Z,70.90
2022-08-30T22:25:10.368Z,70.30
2022-08-30T22:27:01.660Z,70.30
2022-08-30T22:28:53.523Z,70.00
2022-08-30T22:30:44.134Z,69.70
2022-08-30T22:32:34.739Z,69.70
2022-08-30T22:34:26.776Z,69.30
2022-08-30T22:36:19.284Z,69.00
2022-08-30T22:38:09.380Z,68.90
2022-08-30T22:39:59.910Z,68.50
2022-08-30T22:41:50.309Z,68.40
2022-08-30T22:43:41.871Z,68.30
2022-08-30T22:45:33.067Z,68.10
2022-08-30T22:47:24.541Z,68.00
2022-08-30T22:49:14.972Z,67.90
2022-08-30T22:51:07.843Z,67.50
2022-08-30T22:52:58.441Z,67.40
2022-08-30T22:54:49.190Z,67.50
2022-08-30T22:56:39.723Z,67.30
2022-08-30T22:58:30.363Z,67.20
2022-08-30T23:00:21.265Z,67.10
2022-08-30T23:02:11.566Z,67.10
2022-08-30T23:04:03.575Z,67.00
2022-08-30T23:05:54.523Z,66.80
2022-08-30T23:07:46.169Z,66.90
2022-08-30T23:09:36.714Z,66.80
2022-08-30T23:11:27.700Z,66.70
2022-08-30T23:13:20.000Z,66.70
2022-08-30T23:15:14.202Z,66.70
2022-08-30T23:17:04.972Z,66.60
2022-08-30T23:18:55.646Z,66.60
2022-08-30T23:20:46.149Z,66.60
2022-08-30T23:22:36.492Z,66.30
2022-08-30T23:24:28.461Z,66.50
2022-08-30T23:26:18.835Z,66.40
2022-08-30T23:28:09.796Z,66.60
2022-08-30T23:30:00.163Z,66.60
2022-08-30T23:31:51.213Z,66.70
2022-08-30T23:33:41.890Z,66.80
2022-08-30T23:35:32.528Z,66.80
2022-08-30T23:37:23.304Z,66.90
2022-08-30T23:39:13.871Z,66.70
2022-08-30T23:41:05.929Z,66.80
2022-08-30T23:42:56.420Z,67.00
2022-08-30T23:44:46.674Z,66.90
2022-08-30T23:46:36.987Z,67.00
2022-08-30T23:48:27.414Z,67.10
2022-08-30T23:50:18.255Z,67.00
2022-08-30T23:52:08.647Z,67.00
2022-08-30T23:53:58.927Z,67.00
2022-08-30T23:55:49.488Z,67.00
2022-08-30T23:57:41.676Z,67.10
2022-08-30T23:59:32.308Z,67.10
